sensor_id;sensor_type;location;lat;lon;timestamp;P1;durP1;ratioP1;P2;durP2;ratioP2
80578;SDS011;69939;52.402;6.608;2024-03-02T00:00:04;2.75;;;1.60;;
80578;SDS011;69939;52.402;6.608;2024-03-02T00:02:49;1.90;;;1.20;;
80578;SDS011;69939;52.402;6.608;2024-03-02T00:05:42;5.13;;;1.60;;
80578;SDS011;69939;52.402;6.608;2024-03-02T00:08:26;3.83;;;1.55;;
80578;SDS011;69939;52.402;6.608;2024-03-02T00:11:28;1.75;;;1.33;;
80578;SDS011;69939;52.402;6.608;2024-03-02T00:14:11;2.17;;;1.08;;
80578;SDS011;69939;52.402;6.608;2024-03-02T00:17:28;2.80;;;1.65;;
80578;SDS011;69939;52.402;6.608;2024-03-02T00:20:10;2.80;;;1.58;;
80578;SDS011;69939;52.402;6.608;2024-03-02T00:22:48;1.92;;;1.33;;
80578;SDS011;69939;52.402;6.608;2024-03-02T00:25:19;2.13;;;1.35;;
80578;SDS011;69939;52.402;6.608;2024-03-02T00:30:59;3.00;;;1.50;;
80578;SDS011;69939;52.402;6.608;2024-03-02T00:33:39;2.45;;;1.30;;
80578;SDS011;69939;52.402;6.608;2024-03-02T00:36:12;4.50;;;1.50;;
80578;SDS011;69939;52.402;6.608;2024-03-02T00:38:44;2.40;;;0.90;;
80578;SDS011;69939;52.402;6.608;2024-03-02T00:41:21;1.75;;;1.20;;
80578;SDS011;69939;52.402;6.608;2024-03-02T00:43:59;1.25;;;1.00;;
80578;SDS011;69939;52.402;6.608;2024-03-02T00:46:42;3.22;;;1.55;;
80578;SDS011;69939;52.402;6.608;2024-03-02T00:49:20;2.13;;;1.50;;
80578;SDS011;69939;52.402;6.608;2024-03-02T00:51:53;1.38;;;0.95;;
80578;SDS011;69939;52.402;6.608;2024-03-02T00:54:35;2.58;;;1.30;;
80578;SDS011;69939;52.402;6.608;2024-03-02T00:57:14;1.95;;;1.38;;
80578;SDS011;69939;52.402;6.608;2024-03-02T00:59:48;1.67;;;1.05;;
80578;SDS011;69939;52.402;6.608;2024-03-02T01:02:36;1.75;;;1.52;;
80578;SDS011;69939;52.402;6.608;2024-03-02T01:05:12;3.03;;;1.80;;
80578;SDS011;69939;52.402;6.608;2024-03-02T01:07:42;2.53;;;1.30;;
80578;SDS011;69939;52.402;6.608;2024-03-02T01:10:13;2.20;;;1.23;;
80578;SDS011;69939;52.402;6.608;2024-03-02T01:12:55;1.10;;;0.93;;
80578;SDS011;69939;52.402;6.608;2024-03-02T01:15:26;1.83;;;1.20;;
80578;SDS011;69939;52.402;6.608;2024-03-02T01:17:57;1.83;;;1.27;;
80578;SDS011;69939;52.402;6.608;2024-03-02T01:20:37;1.70;;;1.10;;
80578;SDS011;69939;52.402;6.608;2024-03-02T01:23:07;1.98;;;1.00;;
80578;SDS011;69939;52.402;6.608;2024-03-02T01:25:41;1.63;;;1.38;;
80578;SDS011;69939;52.402;6.608;2024-03-02T01:28:29;2.35;;;1.40;;
80578;SDS011;69939;52.402;6.608;2024-03-02T01:31:11;2.03;;;1.23;;
80578;SDS011;69939;52.402;6.608;2024-03-02T01:34:03;1.77;;;1.13;;
80578;SDS011;69939;52.402;6.608;2024-03-02T01:36:50;2.92;;;1.42;;
80578;SDS011;69939;52.402;6.608;2024-03-02T01:39:24;2.72;;;1.42;;
80578;SDS011;69939;52.402;6.608;2024-03-02T01:41:56;2.28;;;1.35;;
80578;SDS011;69939;52.402;6.608;2024-03-02T01:44:27;1.38;;;1.17;;
80578;SDS011;69939;52.402;6.608;2024-03-02T01:47:06;1.20;;;0.88;;
80578;SDS011;69939;52.402;6.608;2024-03-02T01:49:46;2.00;;;1.30;;
80578;SDS011;69939;52.402;6.608;2024-03-02T01:52:31;3.45;;;1.17;;
80578;SDS011;69939;52.402;6.608;2024-03-02T01:55:16;1.85;;;1.13;;
80578;SDS011;69939;52.402;6.608;2024-03-02T01:57:58;2.13;;;1.10;;
80578;SDS011;69939;52.402;6.608;2024-03-02T02:00:34;1.85;;;1.15;;
80578;SDS011;69939;52.402;6.608;2024-03-02T02:03:18;2.30;;;1.00;;
80578;SDS011;69939;52.402;6.608;2024-03-02T02:06:03;2.63;;;1.23;;
80578;SDS011;69939;52.402;6.608;2024-03-02T02:08:39;1.48;;;0.93;;
80578;SDS011;69939;52.402;6.608;2024-03-02T02:11:19;2.55;;;1.20;;
80578;SDS011;69939;52.402;6.608;2024-03-02T02:13:55;1.83;;;1.40;;
80578;SDS011;69939;52.402;6.608;2024-03-02T02:16:30;4.30;;;1.55;;
80578;SDS011;69939;52.402;6.608;2024-03-02T02:19:10;1.63;;;1.33;;
80578;SDS011;69939;52.402;6.608;2024-03-02T02:22:03;2.28;;;1.40;;
80578;SDS011;69939;52.402;6.608;2024-03-02T02:24:42;1.08;;;0.85;;
80578;SDS011;69939;52.402;6.608;2024-03-02T02:27:19;1.80;;;1.30;;
80578;SDS011;69939;52.402;6.608;2024-03-02T02:29:54;3.33;;;1.38;;
80578;SDS011;69939;52.402;6.608;2024-03-02T02:32:28;2.10;;;1.20;;
80578;SDS011;69939;52.402;6.608;2024-03-02T02:35:00;0.80;;;0.73;;
80578;SDS011;69939;52.402;6.608;2024-03-02T02:37:56;2.85;;;1.42;;
80578;SDS011;69939;52.402;6.608;2024-03-02T02:40:27;1.77;;;1.33;;
80578;SDS011;69939;52.402;6.608;2024-03-02T02:43:12;3.72;;;1.25;;
80578;SDS011;69939;52.402;6.608;2024-03-02T02:45:43;1.42;;;1.23;;
80578;SDS011;69939;52.402;6.608;2024-03-02T02:48:15;2.00;;;1.20;;
80578;SDS011;69939;52.402;6.608;2024-03-02T02:53:42;2.90;;;1.58;;
80578;SDS011;69939;52.402;6.608;2024-03-02T02:56:15;1.88;;;1.35;;
80578;SDS011;69939;52.402;6.608;2024-03-02T02:58:53;2.25;;;1.20;;
80578;SDS011;69939;52.402;6.608;2024-03-02T03:01:33;3.35;;;1.40;;
80578;SDS011;69939;52.402;6.608;2024-03-02T03:04:06;2.10;;;1.40;;
80578;SDS011;69939;52.402;6.608;2024-03-02T03:06:38;2.28;;;1.23;;
80578;SDS011;69939;52.402;6.608;2024-03-02T03:09:10;1.63;;;1.38;;
80578;SDS011;69939;52.402;6.608;2024-03-02T03:11:48;1.63;;;1.00;;
80578;SDS011;69939;52.402;6.608;2024-03-02T03:14:22;1.63;;;1.25;;
80578;SDS011;69939;52.402;6.608;2024-03-02T03:16:56;1.30;;;0.85;;
80578;SDS011;69939;52.402;6.608;2024-03-02T03:19:28;2.35;;;1.17;;
80578;SDS011;69939;52.402;6.608;2024-03-02T03:22:15;4.35;;;1.17;;
80578;SDS011;69939;52.402;6.608;2024-03-02T03:24:53;1.55;;;1.20;;
80578;SDS011;69939;52.402;6.608;2024-03-02T03:27:44;2.55;;;1.27;;
80578;SDS011;69939;52.402;6.608;2024-03-02T03:30:17;1.67;;;1.30;;
80578;SDS011;69939;52.402;6.608;2024-03-02T03:32:52;2.17;;;1.40;;
80578;SDS011;69939;52.402;6.608;2024-03-02T03:35:26;2.25;;;1.20;;
80578;SDS011;69939;52.402;6.608;2024-03-02T03:40:33;2.90;;;1.20;;
80578;SDS011;69939;52.402;6.608;2024-03-02T03:43:20;1.58;;;0.82;;
80578;SDS011;69939;52.402;6.608;2024-03-02T03:46:02;2.60;;;1.20;;
80578;SDS011;69939;52.402;6.608;2024-03-02T03:48:50;1.88;;;1.13;;
80578;SDS011;69939;52.402;6.608;2024-03-02T03:51:39;3.03;;;1.15;;
80578;SDS011;69939;52.402;6.608;2024-03-02T03:54:28;1.67;;;1.10;;
80578;SDS011;69939;52.402;6.608;2024-03-02T04:00:04;1.35;;;1.08;;
80578;SDS011;69939;52.402;6.608;2024-03-02T04:02:42;1.30;;;1.20;;
80578;SDS011;69939;52.402;6.608;2024-03-02T04:05:17;1.90;;;1.20;;
80578;SDS011;69939;52.402;6.608;2024-03-02T04:07:51;2.17;;;1.02;;
80578;SDS011;69939;52.402;6.608;2024-03-02T04:10:26;1.88;;;1.40;;
80578;SDS011;69939;52.402;6.608;2024-03-02T04:13:00;1.35;;;0.98;;
80578;SDS011;69939;52.402;6.608;2024-03-02T04:15:38;2.58;;;1.52;;
80578;SDS011;69939;52.402;6.608;2024-03-02T04:18:12;2.45;;;1.30;;
80578;SDS011;69939;52.402;6.608;2024-03-02T04:20:54;2.50;;;1.02;;
80578;SDS011;69939;52.402;6.608;2024-03-02T04:23:27;2.40;;;0.88;;
80578;SDS011;69939;52.402;6.608;2024-03-02T04:26:03;2.55;;;1.40;;
80578;SDS011;69939;52.402;6.608;2024-03-02T04:28:34;1.38;;;1.17;;
80578;SDS011;69939;52.402;6.608;2024-03-02T04:31:19;2.55;;;0.90;;
80578;SDS011;69939;52.402;6.608;2024-03-02T04:33:56;0.68;;;0.43;;
80578;SDS011;69939;52.402;6.608;2024-03-02T04:36:30;1.02;;;0.22;;
80578;SDS011;69939;52.402;6.608;2024-03-02T04:39:00;0.47;;;0.40;;
80578;SDS011;69939;52.402;6.608;2024-03-02T04:41:39;1.63;;;0.52;;
80578;SDS011;69939;52.402;6.608;2024-03-02T04:44:14;0.40;;;0.22;;
80578;SDS011;69939;52.402;6.608;2024-03-02T04:47:02;1.90;;;0.30;;
80578;SDS011;69939;52.402;6.608;2024-03-02T04:49:41;0.93;;;0.60;;
80578;SDS011;69939;52.402;6.608;2024-03-02T04:52:37;0.10;;;0.10;;
80578;SDS011;69939;52.402;6.608;2024-03-02T04:55:15;1.05;;;0.75;;
80578;SDS011;69939;52.402;6.608;2024-03-02T04:58:13;1.27;;;0.50;;
80578;SDS011;69939;52.402;6.608;2024-03-02T05:00:59;0.20;;;0.20;;
80578;SDS011;69939;52.402;6.608;2024-03-02T05:03:50;0.60;;;0.38;;
80578;SDS011;69939;52.402;6.608;2024-03-02T05:06:32;0.73;;;0.40;;
80578;SDS011;69939;52.402;6.608;2024-03-02T05:09:24;0.15;;;0.15;;
80578;SDS011;69939;52.402;6.608;2024-03-02T05:12:03;0.17;;;0.17;;
80578;SDS011;69939;52.402;6.608;2024-03-02T05:14:56;0.22;;;0.20;;
80578;SDS011;69939;52.402;6.608;2024-03-02T05:17:45;0.00;;;0.00;;
80578;SDS011;69939;52.402;6.608;2024-03-02T05:20:24;0.10;;;0.10;;
80578;SDS011;69939;52.402;6.608;2024-03-02T05:22:59;0.22;;;0.22;;
80578;SDS011;69939;52.402;6.608;2024-03-02T05:26:05;0.22;;;0.10;;
80578;SDS011;69939;52.402;6.608;2024-03-02T05:28:59;0.45;;;0.20;;
80578;SDS011;69939;52.402;6.608;2024-03-02T05:31:41;0.03;;;0.03;;
80578;SDS011;69939;52.402;6.608;2024-03-02T05:34:17;0.30;;;0.22;;
80578;SDS011;69939;52.402;6.608;2024-03-02T05:36:58;0.25;;;0.25;;
80578;SDS011;69939;52.402;6.608;2024-03-02T05:39:54;0.10;;;0.10;;
80578;SDS011;69939;52.402;6.608;2024-03-02T05:59:27;0.25;;;0.10;;
80578;SDS011;69939;52.402;6.608;2024-03-02T06:02:13;0.28;;;0.17;;
80578;SDS011;69939;52.402;6.608;2024-03-02T06:05:06;0.22;;;0.13;;
80578;SDS011;69939;52.402;6.608;2024-03-02T06:07:56;0.03;;;0.03;;
80578;SDS011;69939;52.402;6.608;2024-03-02T06:10:43;0.10;;;0.10;;
80578;SDS011;69939;52.402;6.608;2024-03-02T06:13:30;0.00;;;0.00;;
80578;SDS011;69939;52.402;6.608;2024-03-02T06:16:13;0.15;;;0.10;;
80578;SDS011;69939;52.402;6.608;2024-03-02T06:18:55;0.10;;;0.10;;
80578;SDS011;69939;52.402;6.608;2024-03-02T06:21:32;0.20;;;0.10;;
80578;SDS011;69939;52.402;6.608;2024-03-02T06:24:12;0.10;;;0.10;;
80578;SDS011;69939;52.402;6.608;2024-03-02T06:26:42;0.13;;;0.13;;
80578;SDS011;69939;52.402;6.608;2024-03-02T06:29:17;0.13;;;0.13;;
80578;SDS011;69939;52.402;6.608;2024-03-02T06:32:06;0.65;;;0.30;;
80578;SDS011;69939;52.402;6.608;2024-03-02T06:34:42;0.50;;;0.30;;
80578;SDS011;69939;52.402;6.608;2024-03-02T06:37:14;0.55;;;0.30;;
80578;SDS011;69939;52.402;6.608;2024-03-02T06:39:43;1.17;;;0.43;;
80578;SDS011;69939;52.402;6.608;2024-03-02T06:42:13;1.35;;;0.30;;
80578;SDS011;69939;52.402;6.608;2024-03-02T06:44:43;0.22;;;0.20;;
80578;SDS011;69939;52.402;6.608;2024-03-02T06:49:42;0.55;;;0.32;;
80578;SDS011;69939;52.402;6.608;2024-03-02T06:52:14;0.98;;;0.40;;
80578;SDS011;69939;52.402;6.608;2024-03-02T06:54:44;0.63;;;0.17;;
80578;SDS011;69939;52.402;6.608;2024-03-02T06:57:13;0.90;;;0.47;;
80578;SDS011;69939;52.402;6.608;2024-03-02T06:59:49;0.63;;;0.22;;
80578;SDS011;69939;52.402;6.608;2024-03-02T07:02:20;0.85;;;0.30;;
80578;SDS011;69939;52.402;6.608;2024-03-02T07:04:55;0.85;;;0.40;;
80578;SDS011;69939;52.402;6.608;2024-03-02T07:07:24;0.65;;;0.30;;
80578;SDS011;69939;52.402;6.608;2024-03-02T07:12:23;0.82;;;0.82;;
80578;SDS011;69939;52.402;6.608;2024-03-02T07:14:52;0.98;;;0.85;;
80578;SDS011;69939;52.402;6.608;2024-03-02T07:17:33;0.95;;;0.43;;
80578;SDS011;69939;52.402;6.608;2024-03-02T07:20:06;0.57;;;0.30;;
80578;SDS011;69939;52.402;6.608;2024-03-02T07:22:38;1.30;;;0.30;;
80578;SDS011;69939;52.402;6.608;2024-03-02T07:27:36;1.08;;;0.40;;
80578;SDS011;69939;52.402;6.608;2024-03-02T07:30:07;1.35;;;0.60;;
80578;SDS011;69939;52.402;6.608;2024-03-02T07:32:38;0.45;;;0.45;;
80578;SDS011;69939;52.402;6.608;2024-03-02T07:35:13;0.63;;;0.63;;
80578;SDS011;69939;52.402;6.608;2024-03-02T07:37:43;0.40;;;0.40;;
80578;SDS011;69939;52.402;6.608;2024-03-02T07:40:18;0.30;;;0.30;;
80578;SDS011;69939;52.402;6.608;2024-03-02T07:42:51;0.47;;;0.40;;
80578;SDS011;69939;52.402;6.608;2024-03-02T07:45:21;0.82;;;0.30;;
80578;SDS011;69939;52.402;6.608;2024-03-02T07:47:51;0.30;;;0.20;;
80578;SDS011;69939;52.402;6.608;2024-03-02T07:50:22;0.90;;;0.55;;
80578;SDS011;69939;52.402;6.608;2024-03-02T07:52:52;0.38;;;0.38;;
80578;SDS011;69939;52.402;6.608;2024-03-02T07:57:53;0.50;;;0.50;;
80578;SDS011;69939;52.402;6.608;2024-03-02T08:02:54;1.48;;;0.55;;
80578;SDS011;69939;52.402;6.608;2024-03-02T08:05:24;1.05;;;0.50;;
80578;SDS011;69939;52.402;6.608;2024-03-02T08:07:59;0.50;;;0.40;;
80578;SDS011;69939;52.402;6.608;2024-03-02T08:10:29;3.03;;;0.40;;
80578;SDS011;69939;52.402;6.608;2024-03-02T08:12:59;0.85;;;0.38;;
80578;SDS011;69939;52.402;6.608;2024-03-02T08:15:34;1.33;;;0.40;;
80578;SDS011;69939;52.402;6.608;2024-03-02T08:18:03;0.38;;;0.32;;
80578;SDS011;69939;52.402;6.608;2024-03-02T08:20:33;0.68;;;0.32;;
80578;SDS011;69939;52.402;6.608;2024-03-02T08:23:03;2.75;;;0.50;;
80578;SDS011;69939;52.402;6.608;2024-03-02T08:25:33;0.70;;;0.45;;
80578;SDS011;69939;52.402;6.608;2024-03-02T08:30:35;0.73;;;0.43;;
80578;SDS011;69939;52.402;6.608;2024-03-02T08:33:04;1.25;;;1.05;;
80578;SDS011;69939;52.402;6.608;2024-03-02T08:35:34;0.63;;;0.50;;
80578;SDS011;69939;52.402;6.608;2024-03-02T08:38:03;1.10;;;0.82;;
80578;SDS011;69939;52.402;6.608;2024-03-02T08:40:33;4.53;;;0.85;;
80578;SDS011;69939;52.402;6.608;2024-03-02T08:43:02;2.75;;;0.88;;
80578;SDS011;69939;52.402;6.608;2024-03-02T08:45:35;2.38;;;1.23;;
80578;SDS011;69939;52.402;6.608;2024-03-02T08:48:05;1.35;;;0.70;;
80578;SDS011;69939;52.402;6.608;2024-03-02T08:50:36;0.95;;;0.73;;
80578;SDS011;69939;52.402;6.608;2024-03-02T08:53:06;1.27;;;0.57;;
80578;SDS011;69939;52.402;6.608;2024-03-02T08:55:35;1.05;;;0.70;;
80578;SDS011;69939;52.402;6.608;2024-03-02T08:58:04;0.40;;;0.40;;
80578;SDS011;69939;52.402;6.608;2024-03-02T09:00:37;0.98;;;0.65;;
80578;SDS011;69939;52.402;6.608;2024-03-02T09:03:06;1.58;;;0.60;;
80578;SDS011;69939;52.402;6.608;2024-03-02T09:05:36;1.25;;;0.60;;
80578;SDS011;69939;52.402;6.608;2024-03-02T09:08:06;1.00;;;0.70;;
80578;SDS011;69939;52.402;6.608;2024-03-02T09:10:35;0.75;;;0.50;;
80578;SDS011;69939;52.402;6.608;2024-03-02T09:13:05;0.80;;;0.70;;
80578;SDS011;69939;52.402;6.608;2024-03-02T09:15:37;0.55;;;0.45;;
80578;SDS011;69939;52.402;6.608;2024-03-02T09:18:06;1.55;;;0.68;;
80578;SDS011;69939;52.402;6.608;2024-03-02T09:20:42;0.93;;;0.70;;
80578;SDS011;69939;52.402;6.608;2024-03-02T09:23:12;1.23;;;0.73;;
80578;SDS011;69939;52.402;6.608;2024-03-02T09:25:41;1.50;;;0.40;;
80578;SDS011;69939;52.402;6.608;2024-03-02T09:28:11;1.15;;;0.80;;
80578;SDS011;69939;52.402;6.608;2024-03-02T09:30:40;0.50;;;0.47;;
80578;SDS011;69939;52.402;6.608;2024-03-02T09:33:09;2.45;;;0.90;;
80578;SDS011;69939;52.402;6.608;2024-03-02T09:35:42;5.95;;;0.80;;
80578;SDS011;69939;52.402;6.608;2024-03-02T09:38:11;0.35;;;0.32;;
80578;SDS011;69939;52.402;6.608;2024-03-02T09:40:41;0.85;;;0.40;;
80578;SDS011;69939;52.402;6.608;2024-03-02T09:43:11;1.85;;;0.77;;
80578;SDS011;69939;52.402;6.608;2024-03-02T09:45:41;1.60;;;0.80;;
80578;SDS011;69939;52.402;6.608;2024-03-02T09:48:12;2.25;;;0.68;;
80578;SDS011;69939;52.402;6.608;2024-03-02T09:50:48;0.50;;;0.50;;
80578;SDS011;69939;52.402;6.608;2024-03-02T09:53:17;2.70;;;1.13;;
80578;SDS011;69939;52.402;6.608;2024-03-02T09:55:47;2.85;;;0.80;;
80578;SDS011;69939;52.402;6.608;2024-03-02T09:58:16;1.27;;;0.60;;
80578;SDS011;69939;52.402;6.608;2024-03-02T10:00:46;2.92;;;1.00;;
80578;SDS011;69939;52.402;6.608;2024-03-02T10:03:15;0.70;;;0.60;;
80578;SDS011;69939;52.402;6.608;2024-03-02T10:05:50;1.42;;;0.80;;
80578;SDS011;69939;52.402;6.608;2024-03-02T10:08:20;0.80;;;0.43;;
80578;SDS011;69939;52.402;6.608;2024-03-02T10:10:50;1.58;;;0.50;;
80578;SDS011;69939;52.402;6.608;2024-03-02T10:13:19;0.40;;;0.40;;
80578;SDS011;69939;52.402;6.608;2024-03-02T10:15:54;0.57;;;0.55;;
80578;SDS011;69939;52.402;6.608;2024-03-02T10:18:26;2.08;;;0.98;;
80578;SDS011;69939;52.402;6.608;2024-03-02T10:21:03;1.65;;;0.63;;
80578;SDS011;69939;52.402;6.608;2024-03-02T10:23:44;1.45;;;0.65;;
80578;SDS011;69939;52.402;6.608;2024-03-02T10:26:16;0.95;;;0.65;;
80578;SDS011;69939;52.402;6.608;2024-03-02T10:28:47;1.23;;;0.80;;
80578;SDS011;69939;52.402;6.608;2024-03-02T10:31:24;1.77;;;0.70;;
80578;SDS011;69939;52.402;6.608;2024-03-02T10:33:54;1.25;;;1.15;;
80578;SDS011;69939;52.402;6.608;2024-03-02T10:36:27;1.40;;;0.85;;
80578;SDS011;69939;52.402;6.608;2024-03-02T10:38:57;1.83;;;1.08;;
80578;SDS011;69939;52.402;6.608;2024-03-02T10:41:27;0.98;;;0.82;;
80578;SDS011;69939;52.402;6.608;2024-03-02T10:44:01;1.75;;;0.77;;
80578;SDS011;69939;52.402;6.608;2024-03-02T10:46:32;1.67;;;0.80;;
80578;SDS011;69939;52.402;6.608;2024-03-02T10:49:05;0.98;;;0.52;;
80578;SDS011;69939;52.402;6.608;2024-03-02T10:51:37;1.05;;;0.60;;
80578;SDS011;69939;52.402;6.608;2024-03-02T10:54:09;1.13;;;1.00;;
80578;SDS011;69939;52.402;6.608;2024-03-02T10:56:39;0.52;;;0.35;;
80578;SDS011;69939;52.402;6.608;2024-03-02T10:59:17;1.88;;;1.20;;
80578;SDS011;69939;52.402;6.608;2024-03-02T11:01:58;2.72;;;0.85;;
80578;SDS011;69939;52.402;6.608;2024-03-02T11:04:29;2.42;;;1.00;;
80578;SDS011;69939;52.402;6.608;2024-03-02T11:07:04;1.50;;;1.00;;
80578;SDS011;69939;52.402;6.608;2024-03-02T11:09:36;1.05;;;0.85;;
80578;SDS011;69939;52.402;6.608;2024-03-02T11:12:12;1.20;;;0.70;;
80578;SDS011;69939;52.402;6.608;2024-03-02T11:14:47;1.15;;;0.55;;
80578;SDS011;69939;52.402;6.608;2024-03-02T11:17:20;0.85;;;0.40;;
80578;SDS011;69939;52.402;6.608;2024-03-02T11:19:51;0.50;;;0.50;;
80578;SDS011;69939;52.402;6.608;2024-03-02T11:22:24;2.17;;;1.10;;
80578;SDS011;69939;52.402;6.608;2024-03-02T11:24:54;2.35;;;0.90;;
80578;SDS011;69939;52.402;6.608;2024-03-02T11:30:53;1.42;;;0.55;;
80578;SDS011;69939;52.402;6.608;2024-03-02T11:33:23;0.98;;;0.52;;
80578;SDS011;69939;52.402;6.608;2024-03-02T11:35:57;1.02;;;0.77;;
80578;SDS011;69939;52.402;6.608;2024-03-02T11:38:30;1.52;;;0.82;;
80578;SDS011;69939;52.402;6.608;2024-03-02T11:41:01;2.63;;;1.15;;
80578;SDS011;69939;52.402;6.608;2024-03-02T11:43:39;2.03;;;1.42;;
80578;SDS011;69939;52.402;6.608;2024-03-02T11:46:13;1.40;;;0.98;;
80578;SDS011;69939;52.402;6.608;2024-03-02T11:48:49;1.70;;;1.15;;
80578;SDS011;69939;52.402;6.608;2024-03-02T11:51:19;1.90;;;0.98;;
80578;SDS011;69939;52.402;6.608;2024-03-02T11:53:48;2.20;;;1.38;;
80578;SDS011;69939;52.402;6.608;2024-03-02T11:56:22;1.30;;;1.02;;
80578;SDS011;69939;52.402;6.608;2024-03-02T11:58:54;1.75;;;0.80;;
80578;SDS011;69939;52.402;6.608;2024-03-02T12:01:23;3.85;;;1.55;;
80578;SDS011;69939;52.402;6.608;2024-03-02T12:03:56;2.92;;;1.33;;
80578;SDS011;69939;52.402;6.608;2024-03-02T12:06:28;2.13;;;1.02;;
80578;SDS011;69939;52.402;6.608;2024-03-02T12:08:58;1.15;;;1.05;;
80578;SDS011;69939;52.402;6.608;2024-03-02T12:11:27;1.83;;;1.13;;
80578;SDS011;69939;52.402;6.608;2024-03-02T12:14:03;1.20;;;1.00;;
80578;SDS011;69939;52.402;6.608;2024-03-02T12:16:32;2.28;;;1.40;;
80578;SDS011;69939;52.402;6.608;2024-03-02T12:19:02;1.45;;;0.90;;
80578;SDS011;69939;52.402;6.608;2024-03-02T12:21:32;1.10;;;0.70;;
80578;SDS011;69939;52.402;6.608;2024-03-02T12:24:01;3.53;;;1.10;;
80578;SDS011;69939;52.402;6.608;2024-03-02T12:26:31;0.98;;;0.88;;
80578;SDS011;69939;52.402;6.608;2024-03-02T12:29:03;1.25;;;1.08;;
80578;SDS011;69939;52.402;6.608;2024-03-02T12:31:39;2.25;;;1.13;;
80578;SDS011;69939;52.402;6.608;2024-03-02T12:34:08;2.58;;;1.40;;
80578;SDS011;69939;52.402;6.608;2024-03-02T12:36:38;1.80;;;1.65;;
80578;SDS011;69939;52.402;6.608;2024-03-02T12:39:07;1.90;;;1.30;;
80578;SDS011;69939;52.402;6.608;2024-03-02T12:41:37;2.35;;;1.40;;
80578;SDS011;69939;52.402;6.608;2024-03-02T12:44:07;2.28;;;1.23;;
80578;SDS011;69939;52.402;6.608;2024-03-02T12:46:42;1.58;;;1.30;;
80578;SDS011;69939;52.402;6.608;2024-03-02T12:49:21;1.90;;;1.20;;
80578;SDS011;69939;52.402;6.608;2024-03-02T12:51:52;1.85;;;1.70;;
80578;SDS011;69939;52.402;6.608;2024-03-02T12:54:23;3.33;;;2.05;;
80578;SDS011;69939;52.402;6.608;2024-03-02T12:56:52;3.30;;;1.95;;
80578;SDS011;69939;52.402;6.608;2024-03-02T12:59:23;3.35;;;2.00;;
80578;SDS011;69939;52.402;6.608;2024-03-02T13:01:56;1.77;;;1.60;;
80578;SDS011;69939;52.402;6.608;2024-03-02T13:04:27;3.28;;;1.83;;
80578;SDS011;69939;52.402;6.608;2024-03-02T13:06:57;2.30;;;1.50;;
80578;SDS011;69939;52.402;6.608;2024-03-02T13:09:27;2.15;;;1.60;;
80578;SDS011;69939;52.402;6.608;2024-03-02T13:12:01;2.63;;;1.83;;
80578;SDS011;69939;52.402;6.608;2024-03-02T13:14:35;2.17;;;1.70;;
80578;SDS011;69939;52.402;6.608;2024-03-02T13:17:08;1.58;;;1.48;;
80578;SDS011;69939;52.402;6.608;2024-03-02T13:19:50;2.75;;;1.60;;
80578;SDS011;69939;52.402;6.608;2024-03-02T13:22:21;2.28;;;1.80;;
80578;SDS011;69939;52.402;6.608;2024-03-02T13:24:51;2.88;;;1.95;;
80578;SDS011;69939;52.402;6.608;2024-03-02T13:27:22;4.25;;;1.67;;
80578;SDS011;69939;52.402;6.608;2024-03-02T13:29:51;3.03;;;1.67;;
80578;SDS011;69939;52.402;6.608;2024-03-02T13:32:22;2.65;;;1.70;;
80578;SDS011;69939;52.402;6.608;2024-03-02T13:34:55;1.60;;;1.35;;
80578;SDS011;69939;52.402;6.608;2024-03-02T13:37:25;3.60;;;1.80;;
80578;SDS011;69939;52.402;6.608;2024-03-02T13:39:54;2.65;;;1.00;;
80578;SDS011;69939;52.402;6.608;2024-03-02T13:42:24;1.92;;;1.20;;
80578;SDS011;69939;52.402;6.608;2024-03-02T13:44:54;1.38;;;1.17;;
80578;SDS011;69939;52.402;6.608;2024-03-02T13:47:23;1.88;;;1.00;;
80578;SDS011;69939;52.402;6.608;2024-03-02T13:49:56;1.98;;;0.90;;
80578;SDS011;69939;52.402;6.608;2024-03-02T13:52:27;1.98;;;1.20;;
80578;SDS011;69939;52.402;6.608;2024-03-02T13:54:56;1.20;;;0.93;;
80578;SDS011;69939;52.402;6.608;2024-03-02T13:57:26;1.27;;;1.00;;
80578;SDS011;69939;52.402;6.608;2024-03-02T13:59:56;2.90;;;1.90;;
80578;SDS011;69939;52.402;6.608;2024-03-02T14:02:26;1.13;;;1.02;;
80578;SDS011;69939;52.402;6.608;2024-03-02T14:05:02;1.27;;;0.88;;
80578;SDS011;69939;52.402;6.608;2024-03-02T14:07:34;2.35;;;1.08;;
80578;SDS011;69939;52.402;6.608;2024-03-02T14:10:03;1.00;;;0.90;;
80578;SDS011;69939;52.402;6.608;2024-03-02T14:12:34;1.95;;;0.88;;
80578;SDS011;69939;52.402;6.608;2024-03-02T14:15:06;1.50;;;0.93;;
80578;SDS011;69939;52.402;6.608;2024-03-02T14:17:37;2.00;;;0.95;;
80578;SDS011;69939;52.402;6.608;2024-03-02T14:20:10;1.42;;;0.80;;
80578;SDS011;69939;52.402;6.608;2024-03-02T14:22:40;1.55;;;0.70;;
80578;SDS011;69939;52.402;6.608;2024-03-02T14:25:09;1.23;;;0.93;;
80578;SDS011;69939;52.402;6.608;2024-03-02T14:27:38;0.95;;;0.85;;
80578;SDS011;69939;52.402;6.608;2024-03-02T14:30:16;1.25;;;0.93;;
80578;SDS011;69939;52.402;6.608;2024-03-02T14:32:45;1.77;;;0.80;;
80578;SDS011;69939;52.402;6.608;2024-03-02T14:35:19;1.25;;;0.68;;
80578;SDS011;69939;52.402;6.608;2024-03-02T14:37:48;2.95;;;1.00;;
80578;SDS011;69939;52.402;6.608;2024-03-02T14:40:18;0.90;;;0.80;;
80578;SDS011;69939;52.402;6.608;2024-03-02T14:42:50;1.65;;;1.13;;
80578;SDS011;69939;52.402;6.608;2024-03-02T14:45:20;1.27;;;0.77;;
80578;SDS011;69939;52.402;6.608;2024-03-02T14:47:49;2.47;;;0.80;;
80578;SDS011;69939;52.402;6.608;2024-03-02T14:50:24;2.25;;;1.13;;
80578;SDS011;69939;52.402;6.608;2024-03-02T14:52:54;1.42;;;0.80;;
80578;SDS011;69939;52.402;6.608;2024-03-02T14:55:26;3.55;;;0.95;;
80578;SDS011;69939;52.402;6.608;2024-03-02T14:58:03;2.25;;;1.00;;
80578;SDS011;69939;52.402;6.608;2024-03-02T15:00:33;1.38;;;0.80;;
80578;SDS011;69939;52.402;6.608;2024-03-02T15:03:03;1.63;;;0.88;;
80578;SDS011;69939;52.402;6.608;2024-03-02T15:05:39;2.10;;;1.00;;
80578;SDS011;69939;52.402;6.608;2024-03-02T15:08:08;1.67;;;0.88;;
80578;SDS011;69939;52.402;6.608;2024-03-02T15:10:38;1.48;;;1.20;;
80578;SDS011;69939;52.402;6.608;2024-03-02T15:15:39;1.50;;;0.80;;
80578;SDS011;69939;52.402;6.608;2024-03-02T15:18:09;0.98;;;0.80;;
80578;SDS011;69939;52.402;6.608;2024-03-02T15:23:10;1.23;;;0.60;;
80578;SDS011;69939;52.402;6.608;2024-03-02T15:25:42;1.10;;;0.65;;
80578;SDS011;69939;52.402;6.608;2024-03-02T15:28:11;1.23;;;0.60;;
80578;SDS011;69939;52.402;6.608;2024-03-02T15:30:41;1.38;;;1.08;;
80578;SDS011;69939;52.402;6.608;2024-03-02T15:33:10;0.85;;;0.70;;
80578;SDS011;69939;52.402;6.608;2024-03-02T15:38:17;1.05;;;0.70;;
80578;SDS011;69939;52.402;6.608;2024-03-02T15:40:47;0.88;;;0.50;;
80578;SDS011;69939;52.402;6.608;2024-03-02T15:43:18;1.13;;;0.70;;
80578;SDS011;69939;52.402;6.608;2024-03-02T15:45:49;3.08;;;0.93;;
80578;SDS011;69939;52.402;6.608;2024-03-02T15:48:18;1.73;;;0.75;;
80578;SDS011;69939;52.402;6.608;2024-03-02T15:50:48;2.53;;;0.68;;
80578;SDS011;69939;52.402;6.608;2024-03-02T15:53:23;2.28;;;0.85;;
80578;SDS011;69939;52.402;6.608;2024-03-02T15:55:52;1.05;;;0.68;;
80578;SDS011;69939;52.402;6.608;2024-03-02T15:58:22;1.73;;;0.52;;
80578;SDS011;69939;52.402;6.608;2024-03-02T16:00:51;1.67;;;0.73;;
80578;SDS011;69939;52.402;6.608;2024-03-02T16:05:59;0.80;;;0.60;;
80578;SDS011;69939;52.402;6.608;2024-03-02T16:08:28;1.88;;;0.90;;
80578;SDS011;69939;52.402;6.608;2024-03-02T16:10:58;0.85;;;0.68;;
80578;SDS011;69939;52.402;6.608;2024-03-02T16:13:35;1.52;;;0.80;;
80578;SDS011;69939;52.402;6.608;2024-03-02T16:16:04;3.08;;;0.90;;
80578;SDS011;69939;52.402;6.608;2024-03-02T16:18:34;0.80;;;0.80;;
80578;SDS011;69939;52.402;6.608;2024-03-02T16:21:04;1.60;;;0.90;;
80578;SDS011;69939;52.402;6.608;2024-03-02T16:23:34;0.95;;;0.85;;
80578;SDS011;69939;52.402;6.608;2024-03-02T16:26:03;3.10;;;1.27;;
80578;SDS011;69939;52.402;6.608;2024-03-02T16:28:37;4.43;;;1.33;;